Zearing, Illinois
Current Conditions -  °F | °C
As of 6:55 PM on Wednesday 17 Dec 2014 (Local Time) from KVYS Reporting Station
Overcast Overcast  
Wind Chill: 18°   Ceiling: 2200
Heat Index: 26°   Visibility: 10mi
Dew Point: 19°   Wind: 7mph
Humidity: 74%   Direction: 330°NNW
Pressure: 30.31"   Gusts: NA
Location:  41.449°N, 89.3492°W
Report Text: KVYS 180055Z AUTO 33006KT 10SM OVC022 M03/M07 A3031 RMK AO2 T10341075
Loading
Personal Weather Stations






























Interactive Weather Map New forecast layout! Learn more

10-Day Weather Forecast

Advertisements
Track Severe Weather on mobile